Van Nuys, CA

2:39 PM PDT on October 21, 2014 (GMT -0700)
Hesby Oaks | Change Station
CLOSE
Current Station
Personal Weather Station
Location: Encino, CA
Elevation: 705 ft
Nearby Weather Stations

Elev 705 ft 34.16 °N, 118.48 °W | Updated 15 seconds ago

Partly Cloudy
Partly Cloudy
78.6 °F
Feels Like 80 °F
N
2.0
Wind Variable Wind from South
Gusts 4.0 mph

Today
High -- | Low -- °F
--% Chance of Precip.
Yesterday
High -- | Low -- °F
Precip. -- in
7:04 AM 6:12 PM
Waning Crescent, 4% visible
Pressure 29.82 in
Visibility 10.0 miles
Clouds Few 12000 ft
Scattered Clouds 25000 ft
Heat Index 80 °F
Dew Point 61 °F
Humidity 55%
Rainfall 0.00 in
Snow Depth Not available.
UV 0.5 out of 12
Pollen 3.90 out of 12
Ozone Good
PM2.5 Moderate
Flu Activity Sporadic
METAR KVNY 212051Z 23004KT 10SM FEW120 SCT250 28/05 A2984 RMK AO2 SLP096 T02780050 58026

More Conditions Fewer Conditions

Pressure 29.82 in
Visibility 10.0 miles
Clouds Few 12000 ft
Scattered Clouds 25000 ft
Heat Index 80 °F
Dew Point 61 °F
Humidity 55%
Rainfall 0.00 in
Snow Depth Not available.
UV 0.5 out of 12
Pollen 3.90 out of 12
Ozone Good
PM2.5 Moderate
Flu Activity Sporadic
METAR KVNY 212051Z 23004KT 10SM FEW120 SCT250 28/05 A2984 RMK AO2 SLP096 T02780050 58026

More Conditions Fewer Conditions

10-Day Weather Forecast

Almanac

Astronomy

Oct. 21, 2014 Rise Set
Actual Time 7:04 AM PDT 6:12 PM PDT
Civil Twilight 6:38 AM PDT 6:37 PM PDT
Nautical Twilight 6:09 AM PDT 7:07 PM PDT
Astronomical Twilight 5:40 AM PDT 7:36 PM PDT
Moon 4:58 AM PDT 5:04 PM PDT
Length of Visible Light 11h 59m
Length of Day
11h 08m
Tomorrow will be 1m 59s shorter.
Waning Crescent, 4% of the Moon is Illuminated
Today
Waning Crescent
Oct 23
New
Oct 30
First Quarter
Nov 6
Full
Nov 14
Last Quarter

Today's Extremes

State Highs State Lows

Community

WunderPhotos

Upload Photos

1,763,779 photos uploaded!

Nearby

Air Quality

  Air Quality AQ Index Pollutant
Yesterday Moderate
PM2.5
Yesterday Good
OZONE
Current Moderate
PM2.5
Current Good
OZONE
Wednesday Good
PM10
Wednesday Good
OZONE
Wednesday Good
CO
Wednesday Good
NO2

Snow Depth

Station Depth Elevation
Virginia Lakes Ridge 0 in 9200 ft
Leavitt Meadows 1 in 7200 ft
Echo Peak 1 in 7800 ft
Rubicon #2 0 in 7500 ft
Ward Creek #3 1 in 6750 ft

Earthquake Activity

City Distance Mag. Time & Date
No recent earthquake activity has been reported nearby.
Minimum magnitude displayed is 2.5.

Coastal Water Temperatures

Place Temperature
Santa Monica Pier 71.1 °F
Los Angeles, CA 70.0 °F
La Jolla, CA 72.0 °F

Nearby Weather Stations